Terminal Aerodrome Forecast
Issued by NWS

Home | Current Version | Previous Version | Text Only | Print | Product List | Glossary On
Versions: 1 2 3 4 5 6 7 8 9 10 11 12 13 14
000
FTUS41 KCAR 220520
TAFBHB
TAF
KBHB 220520Z 2206/2306 01004KT P6SM OVC100
     FM221300 06007KT P6SM OVC025
     FM221700 06009KT P6SM OVC020
     FM230300 08009KT 2SM -SNPL OVC015
     FM230500 11010KT 1SM -FZRASNPL OVC010=

USA.gov is the U.S. government's official web portal to all federal, state and local government web resources and services.